| time (UTC) | temp F | wind direction | speed MPH | gust MPH | rain 1hr in | rain 24hr in | rain mn in | humidity % | barometer mb |
| 20260506113107 | 52 | 331 | 8.0 | 11.0 | 0.00 | 0.00 | 0.00 | 66 | 1015.9 |
| 20260506112504 | 52 | 329 | 8.0 | 11.0 | 0.00 | 0.00 | 0.00 | 66 | 1015.8 |
| 20260506112004 | 52 | 329 | 8.0 | 11.0 | 0.00 | 0.00 | 0.00 | 66 | 1016.0 |
| 20260506111504 | 52 | 331 | 8.0 | 11.0 | 0.00 | 0.00 | 0.00 | 66 | 1015.9 |
| 20260506111004 | 51 | 327 | 8.0 | 11.0 | 0.00 | 0.00 | 0.00 | 66 | 1015.9 |
| 20260506110504 | 51 | 324 | 8.0 | 11.0 | 0.00 | 0.00 | 0.00 | 67 | 1016.0 |
| 20260506110004 | 52 | 326 | 7.0 | 12.0 | 0.00 | 0.00 | 0.00 | 66 | 1016.0 |
| 20260506105504 | 52 | 324 | 7.0 | 12.0 | 0.00 | 0.00 | 0.00 | 67 | 1016.0 |
| 20260506105004 | 51 | 326 | 8.0 | 11.0 | 0.00 | 0.00 | 0.00 | 68 | 1016.1 |
| 20260506104607 | 51 | 327 | 8.0 | 11.0 | 0.00 | 0.00 | 0.00 | 69 | 1016.1 |
| 20260506104004 | 50 | 324 | 7.0 | 11.0 | 0.00 | 0.00 | 0.00 | 69 | 1016.1 |
| 20260506103504 | 50 | 319 | 6.0 | 11.0 | 0.00 | 0.00 | 0.00 | 70 | 1016.2 |
| 20260506103107 | 50 | 316 | 6.0 | 11.0 | 0.00 | 0.00 | 0.00 | 72 | 1016.2 |
| 20260506102503 | 49 | 308 | 5.0 | 9.0 | 0.00 | 0.00 | 0.00 | 69 | 1016.2 |
| 20260506102004 | 49 | 303 | 6.0 | 9.0 | 0.00 | 0.00 | 0.00 | 72 | 1016.1 |
| 20260506101504 | 48 | 295 | 6.0 | 9.0 | 0.00 | 0.00 | 0.00 | 72 | 1016.2 |
| 20260506101107 | 48 | 294 | 6.0 | 9.0 | 0.00 | 0.00 | 0.00 | 73 | 1016.2 |
| 20260506100607 | 48 | 293 | 6.0 | 9.0 | 0.00 | 0.00 | 0.00 | 73 | 1016.2 |
| 20260506100107 | 47 | 291 | 6.0 | 10.0 | 0.00 | 0.00 | 0.00 | 75 | 1016.1 |
| 20260506095504 | 47 | 281 | 7.0 | 10.0 | 0.00 | 0.00 | 0.00 | 75 | 1016.1 |
| 20260506095003 | 47 | 281 | 7.0 | 11.0 | 0.00 | 0.00 | 0.00 | 74 | 1016.1 |
| 20260506094504 | 48 | 290 | 7.0 | 11.0 | 0.00 | 0.00 | 0.00 | 73 | 1016.0 |
| 20260506094003 | 48 | 300 | 6.0 | 10.0 | 0.00 | 0.00 | 0.00 | 73 | 1016.1 |
| 20260506093503 | 48 | 302 | 6.0 | 9.0 | 0.00 | 0.00 | 0.00 | 74 | 1016.0 |
| 20260506093003 | 47 | 297 | 6.0 | 9.0 | 0.00 | 0.00 | 0.00 | 74 | 1016.0 |
| 20260506092606 | 47 | 293 | 6.0 | 9.0 | 0.00 | 0.00 | 0.00 | 74 | 1016.0 |
| 20260506092107 | 48 | 295 | 6.0 | 9.0 | 0.00 | 0.00 | 0.00 | 75 | 1016.0 |
| 20260506091503 | 47 | 293 | 6.0 | 11.0 | 0.00 | 0.00 | 0.00 | 73 | 1015.9 |
| 20260506091106 | 47 | 291 | 6.0 | 11.0 | 0.00 | 0.00 | 0.00 | 74 | 1015.9 |
| 20260506090606 | 47 | 285 | 6.0 | 9.0 | 0.00 | 0.00 | 0.00 | 73 | 1015.9 |
| 20260506090106 | 46 | 283 | 6.0 | 10.0 | 0.00 | 0.00 | 0.00 | 73 | 1015.9 |
| 20260506085503 | 46 | 282 | 7.0 | 10.0 | 0.00 | 0.00 | 0.00 | 73 | 1015.9 |
| 20260506085003 | 47 | 287 | 6.0 | 10.0 | 0.00 | 0.00 | 0.00 | 73 | 1015.8 |
| 20260506084503 | 47 | 296 | 6.0 | 10.0 | 0.00 | 0.00 | 0.00 | 74 | 1015.7 |
| 20260506084106 | 47 | 303 | 6.0 | 10.0 | 0.00 | 0.00 | 0.00 | 74 | 1015.6 |
| 20260506083606 | 46 | 290 | 7.0 | 10.0 | 0.00 | 0.00 | 0.00 | 74 | 1015.6 |
| 20260506083003 | 46 | 285 | 7.0 | 11.0 | 0.00 | 0.00 | 0.00 | 75 | 1015.6 |
| 20260506082503 | 46 | 285 | 7.0 | 11.0 | 0.00 | 0.00 | 0.00 | 76 | 1015.6 |
| 20260506082005 | 45 | 281 | 7.0 | 11.0 | 0.00 | 0.00 | 0.00 | 76 | 1015.6 |
| 20260506081504 | 45 | 282 | 7.0 | 11.0 | 0.00 | 0.00 | 0.00 | 78 | 1015.6 |
| 20260506081004 | 45 | 282 | 7.0 | 10.0 | 0.00 | 0.00 | 0.00 | 77 | 1015.6 |
| 20260506080504 | 45 | 279 | 7.0 | 10.0 | 0.00 | 0.00 | 0.00 | 77 | 1015.4 |
| 20260506073504 | 45 | 284 | 7.0 | 9.0 | 0.00 | 0.00 | 0.00 | 78 | 1015.2 |
| 20260506073004 | 45 | 285 | 7.0 | 10.0 | 0.00 | 0.00 | 0.00 | 78 | 1015.2 |
| 20260506072504 | 45 | 287 | 6.0 | 10.0 | 0.00 | 0.00 | 0.00 | 79 | 1015.2 |
| 20260506071504 | 46 | 300 | 5.0 | 9.0 | 0.00 | 0.00 | 0.00 | 78 | 1015.0 |
| 20260506071004 | 46 | 299 | 5.0 | 9.0 | 0.00 | 0.00 | 0.00 | 80 | 1014.9 |
| 20260506070504 | 45 | 287 | 5.0 | 9.0 | 0.00 | 0.00 | 0.00 | 79 | 1014.8 |
| 20260506062504 | 45 | 304 | 5.0 | 8.0 | 0.00 | 0.00 | 0.00 | 81 | 1014.7 |
| 20260506062004 | 44 | 292 | 5.0 | 9.0 | 0.00 | 0.00 | 0.00 | 80 | 1014.8 |
| 20260506061503 | 44 | 285 | 4.0 | 9.0 | 0.00 | 0.00 | 0.00 | 80 | 1014.8 |
| 20260506061004 | 44 | 293 | 4.0 | 8.0 | 0.00 | 0.00 | 0.00 | 81 | 1014.8 |
| 20260506060504 | 44 | 290 | 4.0 | 8.0 | 0.00 | 0.00 | 0.00 | 82 | 1014.6 |
| 20260506051003 | 42 | 301 | 4.0 | 8.0 | 0.00 | 0.00 | 0.00 | 91 | 1014.0 |
| 20260506050503 | 42 | 296 | 4.0 | 8.0 | 0.00 | 0.00 | 0.00 | 92 | 1014.1 |
| 20260506045004 | 41 | 299 | 4.0 | 7.0 | 0.00 | 0.00 | 0.00 | 93 | 1014.1 |
| 20260506044503 | 41 | 296 | 4.0 | 7.0 | 0.00 | 0.00 | 0.00 | 93 | 1014.0 |
| 20260506044003 | 40 | 297 | 3.0 | 7.0 | 0.00 | 0.00 | 0.00 | 93 | 1013.9 |
| 20260506043503 | 39 | 311 | 1.0 | 7.0 | 0.00 | 0.00 | 0.00 | 93 | 1013.9 |
| 20260506043003 | 38 | 61 | 0.0 | 2.0 | 0.00 | 0.00 | 0.00 | 92 | 1013.8 |
| 20260506042504 | 37 | 0 | 0.0 | 0.0 | 0.00 | 0.00 | 0.00 | 92 | 1013.7 |
| 20260506042004 | 36 | 0 | 0.0 | 0.0 | 0.00 | 0.00 | 0.00 | 92 | 1013.6 |
| 20260506041504 | 35 | 0 | 0.0 | 0.0 | 0.00 | 0.00 | 0.00 | 92 | 1013.6 |
| 20260506041004 | 34 | 0 | 0.0 | 0.0 | 0.00 | 0.00 | 0.00 | 92 | 1013.6 |
| 20260506040504 | 34 | 0 | 0.0 | 0.0 | 0.00 | 0.00 | 0.00 | 92 | 1013.6 |
| 20260506040004 | 34 | 0 | 0.0 | 0.0 | 0.00 | 0.00 | 0.00 | 92 | 1013.5 |
| 20260506035504 | 34 | 0 | 0.0 | 0.0 | 0.00 | 0.00 | 0.00 | 92 | 1013.4 |
| 20260506035107 | 34 | 0 | 0.0 | 0.0 | 0.00 | 0.00 | 0.00 | 92 | 1013.3 |
| 20260506034504 | 33 | 0 | 0.0 | 0.0 | 0.00 | 0.00 | 0.00 | 91 | 1013.2 |
| 20260506034004 | 32 | 111 | 0.0 | 2.0 | 0.00 | 0.00 | 0.00 | 91 | 1013.2 |
| 20260506033504 | 32 | 111 | 0.0 | 2.0 | 0.00 | 0.00 | 0.00 | 91 | 1013.2 |
| 20260506033004 | 31 | 111 | 0.0 | 1.0 | 0.00 | 0.00 | 0.00 | 91 | 1013.1 |
| 20260506032504 | 31 | 111 | 1.0 | 3.0 | 0.00 | 0.00 | 0.00 | 91 | 1013.1 |
| 20260506032004 | 30 | 111 | 1.0 | 3.0 | 0.00 | 0.00 | 0.00 | 90 | 1013.0 |
| 20260506031504 | 30 | 111 | 1.0 | 2.0 | 0.00 | 0.00 | 0.00 | 90 | 1012.9 |
| 20260506031004 | 30 | 111 | 1.0 | 3.0 | 0.00 | 0.00 | 0.00 | 90 | 1012.8 |
| 20260506030504 | 31 | 111 | 1.0 | 3.0 | 0.00 | 0.00 | 0.00 | 90 | 1012.7 |
| 20260506030107 | 31 | 111 | 0.0 | 2.0 | 0.00 | 0.00 | 0.00 | 90 | 1012.6 |
| 20260506025504 | 31 | 111 | 1.0 | 2.0 | 0.00 | 0.00 | 0.00 | 90 | 1012.7 |
| 20260506025004 | 31 | 111 | 1.0 | 2.0 | 0.00 | 0.00 | 0.00 | 90 | 1012.6 |
| 20260506024503 | 31 | 111 | 1.0 | 3.0 | 0.00 | 0.00 | 0.00 | 91 | 1012.6 |
| 20260506024003 | 31 | 103 | 1.0 | 3.0 | 0.00 | 0.00 | 0.00 | 91 | 1012.5 |
| 20260506023504 | 30 | 91 | 1.0 | 3.0 | 0.00 | 0.00 | 0.00 | 90 | 1012.5 |
| 20260506023004 | 30 | 64 | 1.0 | 2.0 | 0.00 | 0.00 | 0.00 | 90 | 1012.5 |
| 20260506022504 | 30 | 64 | 1.0 | 3.0 | 0.00 | 0.00 | 0.00 | 90 | 1012.4 |
| 20260506022107 | 30 | 64 | 2.0 | 3.0 | 0.00 | 0.00 | 0.00 | 90 | 1012.4 |
| 20260506021503 | 30 | 64 | 2.0 | 3.0 | 0.00 | 0.00 | 0.00 | 90 | 1012.4 |
| 20260506021004 | 31 | 64 | 2.0 | 3.0 | 0.00 | 0.00 | 0.00 | 90 | 1012.3 |
| 20260506020504 | 31 | 63 | 2.0 | 3.0 | 0.00 | 0.00 | 0.00 | 90 | 1012.2 |
| 20260506020004 | 31 | 63 | 2.0 | 3.0 | 0.00 | 0.00 | 0.00 | 90 | 1012.2 |
| 20260506015607 | 31 | 63 | 2.0 | 3.0 | 0.00 | 0.00 | 0.00 | 90 | 1012.2 |
| 20260506015003 | 31 | 63 | 1.0 | 3.0 | 0.00 | 0.00 | 0.00 | 90 | 1012.2 |
| 20260506014606 | 31 | 63 | 1.0 | 2.0 | 0.00 | 0.00 | 0.00 | 90 | 1012.2 |
| 20260506014003 | 31 | 63 | 2.0 | 3.0 | 0.00 | 0.00 | 0.00 | 90 | 1012.1 |
| 20260506013606 | 31 | 61 | 2.0 | 3.0 | 0.00 | 0.00 | 0.00 | 90 | 1012.1 |
| 20260506013003 | 31 | 57 | 3.0 | 3.0 | 0.00 | 0.00 | 0.00 | 89 | 1012.1 |
| 20260506012503 | 30 | 54 | 3.0 | 3.0 | 0.00 | 0.00 | 0.00 | 89 | 1012.1 |
| 20260506012003 | 31 | 49 | 2.0 | 3.0 | 0.00 | 0.00 | 0.00 | 89 | 1012.1 |
| 20260506011606 | 31 | 45 | 2.0 | 3.0 | 0.00 | 0.00 | 0.00 | 88 | 1012.1 |
| 20260506011003 | 32 | 41 | 0.0 | 3.0 | 0.00 | 0.00 | 0.00 | 89 | 1012.0 |
| 20260506010503 | 33 | 0 | 0.0 | 0.0 | 0.00 | 0.00 | 0.00 | 89 | 1012.0 |
| 20260506010003 | 33 | 0 | 0.0 | 0.0 | 0.00 | 0.00 | 0.00 | 89 | 1012.0 |
| 20260506005503 | 34 | 0 | 0.0 | 0.0 | 0.00 | 0.00 | 0.00 | 89 | 1011.9 |
| 20260506005003 | 34 | 0 | 0.0 | 0.0 | 0.00 | 0.00 | 0.00 | 89 | 1011.9 |
| 20260506004504 | 34 | 26 | 1.0 | 2.0 | 0.00 | 0.00 | 0.00 | 90 | 1011.9 |
| 20260506004003 | 34 | 26 | 2.0 | 3.0 | 0.00 | 0.00 | 0.00 | 89 | 1011.8 |
| 20260506003504 | 33 | 26 | 2.0 | 3.0 | 0.00 | 0.00 | 0.00 | 89 | 1011.8 |
| 20260506003107 | 34 | 26 | 2.0 | 3.0 | 0.00 | 0.00 | 0.00 | 88 | 1011.8 |
| 20260506002608 | 34 | 26 | 1.0 | 2.0 | 0.00 | 0.00 | 0.00 | 88 | 1011.8 |
| 20260506002108 | 35 | 26 | 1.0 | 2.0 | 0.00 | 0.00 | 0.00 | 88 | 1011.7 |
| 20260506001504 | 36 | 26 | 0.0 | 1.0 | 0.00 | 0.00 | 0.00 | 90 | 1011.7 |
| 20260506001004 | 36 | 0 | 0.0 | 0.0 | 0.00 | 0.00 | 0.00 | 90 | 1011.6 |
| 20260506000504 | 36 | 26 | 0.0 | 1.0 | 0.00 | 0.00 | 0.00 | 90 | 1011.6 |
| 20260506000004 | 36 | 26 | 0.0 | 2.0 | 0.00 | 0.00 | 0.00 | 89 | 1011.5 |
| 20260505235504 | 36 | 26 | 1.0 | 2.0 | 0.00 | 0.00 | 0.00 | 89 | 1011.6 |
| 20260505235004 | 35 | 26 | 1.0 | 2.0 | 0.00 | 0.00 | 0.00 | 88 | 1011.5 |
| 20260505234504 | 35 | 25 | 2.0 | 3.0 | 0.00 | 0.00 | 0.00 | 87 | 1011.5 |
| 20260505234003 | 35 | 25 | 2.0 | 3.0 | 0.00 | 0.00 | 0.00 | 87 | 1011.5 |
| 20260505233504 | 36 | 24 | 2.0 | 3.0 | 0.00 | 0.00 | 0.00 | 87 | 1011.4 |
| 20260505233004 | 37 | 17 | 1.0 | 3.0 | 0.00 | 0.00 | 0.00 | 86 | 1011.3 |
| 20260505232504 | 38 | 340 | 1.0 | 3.0 | 0.00 | 0.00 | 0.00 | 86 | 1011.3 |
| 20260505232004 | 38 | 315 | 1.0 | 3.0 | 0.00 | 0.00 | 0.00 | 87 | 1011.3 |
| 20260505231504 | 39 | 308 | 2.0 | 7.0 | 0.00 | 0.00 | 0.00 | 87 | 1011.3 |
| 20260505231004 | 40 | 300 | 2.0 | 7.0 | 0.00 | 0.00 | 0.00 | 88 | 1011.3 |
| 20260505230107 | 40 | 286 | 3.0 | 7.0 | 0.00 | 0.00 | 0.00 | 88 | 1011.3 |
| 20260505225606 | 40 | 291 | 3.0 | 8.0 | 0.00 | 0.00 | 0.00 | 88 | 1011.3 |
| 20260505225003 | 40 | 295 | 3.0 | 8.0 | 0.00 | 0.00 | 0.00 | 88 | 1011.2 |
| 20260505224607 | 40 | 301 | 3.0 | 7.0 | 0.00 | 0.00 | 0.00 | 88 | 1011.1 |
| 20260505224003 | 40 | 293 | 4.0 | 9.0 | 0.00 | 0.00 | 0.00 | 88 | 1011.2 |
| 20260505223503 | 40 | 298 | 4.0 | 9.0 | 0.00 | 0.00 | 0.00 | 88 | 1011.1 |
| 20260505223106 | 39 | 304 | 4.0 | 8.0 | 0.00 | 0.00 | 0.00 | 87 | 1011.1 |
| 20260505222504 | 39 | 316 | 4.0 | 7.0 | 0.00 | 0.00 | 0.00 | 87 | 1011.2 |
| 20260505222003 | 39 | 316 | 5.0 | 8.0 | 0.00 | 0.00 | 0.00 | 87 | 1011.1 |
| 20260505221503 | 40 | 315 | 5.0 | 8.0 | 0.00 | 0.00 | 0.00 | 87 | 1011.2 |
| 20260505221003 | 39 | 318 | 5.0 | 8.0 | 0.00 | 0.00 | 0.00 | 87 | 1011.1 |
| 20260505220503 | 39 | 319 | 5.0 | 9.0 | 0.00 | 0.00 | 0.00 | 87 | 1011.2 |
| 20260505220106 | 39 | 320 | 5.0 | 9.0 | 0.00 | 0.00 | 0.00 | 87 | 1011.2 |
| 20260505215503 | 40 | 320 | 5.0 | 8.0 | 0.00 | 0.00 | 0.00 | 87 | 1011.1 |
| 20260505215107 | 40 | 314 | 4.0 | 8.0 | 0.00 | 0.00 | 0.00 | 87 | 1011.1 |
| 20260505214503 | 40 | 302 | 4.0 | 10.0 | 0.00 | 0.00 | 0.00 | 87 | 1011.1 |
| 20260505214003 | 40 | 303 | 5.0 | 10.0 | 0.00 | 0.00 | 0.00 | 87 | 1011.0 |
| 20260505213503 | 40 | 314 | 6.0 | 9.0 | 0.00 | 0.00 | 0.00 | 87 | 1011.0 |
| 20260505213003 | 40 | 317 | 6.0 | 10.0 | 0.00 | 0.00 | 0.00 | 87 | 1011.0 |
| 20260505212503 | 40 | 316 | 6.0 | 11.0 | 0.00 | 0.00 | 0.00 | 87 | 1010.9 |
| 20260505212003 | 40 | 315 | 6.0 | 11.0 | 0.00 | 0.00 | 0.00 | 86 | 1010.9 |
| 20260505211503 | 40 | 311 | 7.0 | 12.0 | 0.00 | 0.00 | 0.00 | 86 | 1010.9 |
| 20260505211004 | 40 | 309 | 7.0 | 12.0 | 0.00 | 0.00 | 0.00 | 86 | 1010.9 |
| 20260505210504 | 40 | 309 | 6.0 | 12.0 | 0.00 | 0.00 | 0.00 | 86 | 1010.9 |
| 20260505210107 | 40 | 311 | 6.0 | 12.0 | 0.00 | 0.00 | 0.00 | 86 | 1010.8 |
| 20260505205607 | 40 | 317 | 7.0 | 12.0 | 0.00 | 0.00 | 0.00 | 86 | 1010.9 |
| 20260505205004 | 40 | 317 | 6.0 | 11.0 | 0.00 | 0.00 | 0.00 | 85 | 1010.8 |
| 20260505204504 | 40 | 319 | 6.0 | 11.0 | 0.00 | 0.00 | 0.00 | 85 | 1010.8 |
| 20260505204004 | 40 | 316 | 6.0 | 10.0 | 0.00 | 0.00 | 0.00 | 85 | 1010.6 |
| 20260505203504 | 40 | 311 | 5.0 | 9.0 | 0.00 | 0.00 | 0.00 | 85 | 1010.7 |
| 20260505203004 | 41 | 307 | 5.0 | 10.0 | 0.00 | 0.00 | 0.00 | 85 | 1010.6 |
| 20260505202504 | 41 | 301 | 6.0 | 13.0 | 0.00 | 0.00 | 0.00 | 85 | 1010.6 |
| 20260505202107 | 41 | 298 | 7.0 | 13.0 | 0.00 | 0.00 | 0.00 | 85 | 1010.4 |
| 20260505201504 | 41 | 299 | 7.0 | 11.0 | 0.00 | 0.00 | 0.00 | 85 | 1010.4 |
| 20260505201004 | 41 | 293 | 6.0 | 11.0 | 0.00 | 0.00 | 0.00 | 85 | 1010.5 |
| 20260505200504 | 41 | 286 | 7.0 | 12.0 | 0.00 | 0.00 | 0.00 | 86 | 1010.3 |
| 20260505200004 | 41 | 286 | 8.0 | 12.0 | 0.00 | 0.00 | 0.00 | 85 | 1010.3 |
| 20260505195503 | 41 | 287 | 8.0 | 12.0 | 0.00 | 0.00 | 0.00 | 86 | 1010.2 |
| 20260505195004 | 41 | 292 | 7.0 | 12.0 | 0.00 | 0.00 | 0.00 | 86 | 1010.2 |
| 20260505194504 | 40 | 305 | 5.0 | 10.0 | 0.00 | 0.00 | 0.00 | 86 | 1010.2 |
| 20260505194004 | 40 | 320 | 5.0 | 11.0 | 0.00 | 0.00 | 0.00 | 86 | 1010.2 |
| 20260505193504 | 40 | 319 | 6.0 | 11.0 | 0.00 | 0.00 | 0.00 | 86 | 1010.2 |
| 20260505193004 | 41 | 314 | 7.0 | 11.0 | 0.00 | 0.00 | 0.00 | 86 | 1010.2 |
| 20260505192504 | 41 | 314 | 7.0 | 11.0 | 0.00 | 0.00 | 0.00 | 86 | 1010.3 |
| 20260505192003 | 41 | 309 | 6.0 | 11.0 | 0.00 | 0.00 | 0.00 | 86 | 1010.2 |
| 20260505191503 | 41 | 306 | 6.0 | 11.0 | 0.00 | 0.00 | 0.00 | 86 | 1010.3 |
| 20260505191004 | 41 | 308 | 6.0 | 11.0 | 0.00 | 0.00 | 0.00 | 86 | 1010.1 |
| 20260505190504 | 41 | 310 | 6.0 | 11.0 | 0.00 | 0.00 | 0.00 | 86 | 1010.2 |
| 20260505190106 | 41 | 316 | 7.0 | 11.0 | 0.00 | 0.00 | 0.00 | 86 | 1010.2 |
| 20260505185503 | 41 | 316 | 7.0 | 13.0 | 0.00 | 0.00 | 0.00 | 85 | 1010.2 |
| 20260505185003 | 41 | 313 | 6.0 | 13.0 | 0.00 | 0.00 | 0.00 | 86 | 1010.2 |
| 20260505184503 | 41 | 318 | 7.0 | 13.0 | 0.00 | 0.00 | 0.00 | 85 | 1010.1 |
| 20260505184003 | 41 | 316 | 7.0 | 12.0 | 0.00 | 0.00 | 0.00 | 85 | 1010.2 |
| 20260505183503 | 41 | 311 | 6.0 | 12.0 | 0.00 | 0.00 | 0.00 | 85 | 1010.1 |
| 20260505183003 | 41 | 311 | 6.0 | 12.0 | 0.00 | 0.00 | 0.00 | 84 | 1010.1 |
| 20260505182503 | 42 | 313 | 6.0 | 11.0 | 0.00 | 0.00 | 0.00 | 84 | 1010.0 |
| 20260505182003 | 42 | 316 | 6.0 | 11.0 | 0.00 | 0.00 | 0.00 | 83 | 1009.9 |
| 20260505181606 | 42 | 308 | 6.0 | 11.0 | 0.00 | 0.00 | 0.00 | 82 | 1009.9 |
| 20260505181003 | 42 | 298 | 6.0 | 12.0 | 0.00 | 0.00 | 0.00 | 82 | 1009.8 |
| 20260505180503 | 42 | 297 | 6.0 | 11.0 | 0.00 | 0.00 | 0.00 | 82 | 1009.9 |
| 20260505180106 | 43 | 295 | 6.0 | 11.0 | 0.00 | 0.00 | 0.00 | 82 | 1009.8 |
| 20260505175606 | 43 | 300 | 6.0 | 10.0 | 0.00 | 0.00 | 0.00 | 82 | 1009.7 |
| 20260505175003 | 43 | 300 | 6.0 | 10.0 | 0.00 | 0.00 | 0.00 | 82 | 1009.7 |
| 20260505174503 | 43 | 299 | 5.0 | 10.0 | 0.00 | 0.00 | 0.00 | 82 | 1009.7 |
| 20260505174003 | 43 | 293 | 6.0 | 11.0 | 0.00 | 0.00 | 0.00 | 82 | 1009.7 |
| 20260505173503 | 43 | 296 | 7.0 | 11.0 | 0.00 | 0.00 | 0.00 | 82 | 1009.7 |
| 20260505173106 | 44 | 307 | 6.0 | 10.0 | 0.00 | 0.00 | 0.00 | 82 | 1009.7 |
| 20260505172503 | 44 | 317 | 6.0 | 10.0 | 0.00 | 0.00 | 0.00 | 82 | 1009.7 |
| 20260505172003 | 44 | 312 | 6.0 | 11.0 | 0.00 | 0.00 | 0.00 | 82 | 1009.7 |
| 20260505171504 | 44 | 307 | 6.0 | 11.0 | 0.00 | 0.00 | 0.00 | 82 | 1009.8 |
| 20260505171004 | 44 | 300 | 5.0 | 11.0 | 0.00 | 0.00 | 0.00 | 82 | 1009.7 |
| 20260505170504 | 44 | 295 | 5.0 | 10.0 | 0.00 | 0.00 | 0.00 | 82 | 1009.8 |
| 20260505170004 | 44 | 303 | 6.0 | 10.0 | 0.00 | 0.00 | 0.00 | 82 | 1009.7 |
| 20260505165504 | 44 | 304 | 5.0 | 10.0 | 0.00 | 0.00 | 0.00 | 82 | 1009.7 |
| 20260505165004 | 44 | 305 | 6.0 | 12.0 | 0.00 | 0.00 | 0.00 | 81 | 1009.7 |
| 20260505164504 | 44 | 311 | 7.0 | 12.0 | 0.00 | 0.00 | 0.00 | 82 | 1009.6 |
| 20260505164004 | 44 | 308 | 7.0 | 11.0 | 0.00 | 0.00 | 0.00 | 81 | 1009.5 |
| 20260505163504 | 44 | 300 | 7.0 | 11.0 | 0.00 | 0.00 | 0.00 | 82 | 1009.6 |
| 20260505163009 | 44 | 299 | 7.0 | 11.0 | 0.00 | 0.00 | 0.00 | 82 | 1009.6 |
| 20260505162504 | 45 | 307 | 6.0 | 11.0 | 0.00 | 0.00 | 0.00 | 81 | 1009.6 |
| 20260505162004 | 45 | 299 | 7.0 | 10.0 | 0.00 | 0.00 | 0.00 | 82 | 1009.6 |
| 20260505161504 | 44 | 290 | 7.0 | 10.0 | 0.00 | 0.00 | 0.00 | 82 | 1009.6 |
| 20260505161004 | 45 | 301 | 6.0 | 10.0 | 0.00 | 0.00 | 0.00 | 81 | 1009.6 |
| 20260505160504 | 45 | 301 | 6.0 | 12.0 | 0.00 | 0.00 | 0.00 | 83 | 1009.6 |
| 20260505160107 | 44 | 292 | 7.0 | 12.0 | 0.00 | 0.00 | 0.00 | 83 | 1009.7 |
| 20260505153004 | 44 | 284 | 8.0 | 13.0 | 0.00 | 0.00 | 0.00 | 84 | 1009.4 |
| 20260505152607 | 44 | 282 | 8.0 | 13.0 | 0.00 | 0.00 | 0.00 | 84 | 1009.5 |
| 20260505152107 | 44 | 284 | 8.0 | 13.0 | 0.00 | 0.00 | 0.00 | 84 | 1009.4 |
| 20260505151503 | 44 | 284 | 8.0 | 13.0 | 0.00 | 0.00 | 0.00 | 85 | 1009.5 |
| 20260505151004 | 44 | 282 | 9.0 | 13.0 | 0.00 | 0.00 | 0.00 | 85 | 1009.5 |
| 20260505150503 | 44 | 282 | 9.0 | 13.0 | 0.00 | 0.00 | 0.00 | 84 | 1009.4 |
| 20260505140503 | 46 | 309 | 7.0 | 13.0 | 0.00 | 0.00 | 0.00 | 83 | 1009.3 |
| 20260505125004 | 47 | 309 | 9.0 | 14.0 | 0.00 | 0.00 | 0.00 | 83 | 1008.9 |
| 20260505124504 | 46 | 306 | 9.0 | 14.0 | 0.00 | 0.00 | 0.00 | 82 | 1008.9 |
| 20260505124004 | 46 | 304 | 9.0 | 14.0 | 0.00 | 0.00 | 0.00 | 82 | 1008.8 |
| 20260505123504 | 46 | 304 | 9.0 | 14.0 | 0.00 | 0.00 | 0.00 | 82 | 1008.9 |
| 20260505123004 | 47 | 301 | 9.0 | 13.0 | 0.00 | 0.00 | 0.00 | 82 | 1008.9 |
| 20260505122504 | 46 | 302 | 8.0 | 15.0 | 0.00 | 0.00 | 0.00 | 82 | 1008.8 |
| 20260505122004 | 47 | 306 | 8.0 | 15.0 | 0.00 | 0.00 | 0.00 | 81 | 1008.8 |
| 20260505121503 | 47 | 307 | 9.0 | 14.0 | 0.00 | 0.00 | 0.00 | 81 | 1008.8 |
| 20260505121004 | 47 | 304 | 9.0 | 14.0 | 0.00 | 0.01 | 0.00 | 81 | 1008.8 |
| 20260505120503 | 47 | 308 | 10.0 | 14.0 | 0.00 | 0.01 | 0.00 | 81 | 1008.7 |
| 20260505120004 | 47 | 309 | 10.0 | 14.0 | 0.00 | 0.01 | 0.00 | 82 | 1008.7 |
| 20260505115504 | 47 | 305 | 9.0 | 15.0 | 0.00 | 0.01 | 0.00 | 82 | 1008.5 |
| 20260505115004 | 47 | 308 | 9.0 | 15.0 | 0.00 | 0.01 | 0.00 | 82 | 1008.5 |
| 20260505114504 | 47 | 310 | 10.0 | 15.0 | 0.00 | 0.01 | 0.00 | 81 | 1008.5 |
| 20260505114003 | 47 | 312 | 10.0 | 16.0 | 0.00 | 0.01 | 0.00 | 81 | 1008.4 |
| 20260505113504 | 47 | 309 | 10.0 | 16.0 | 0.00 | 0.01 | 0.00 | 81 | 1008.3 |